Connexion S'enregistrer

Connexion à votre compte

Identifiant
Mot de passe
Maintenir la connexion active sur ce site

Créer un compte

Pour valider ce formulaire, vous devez remplir tous les champs.
Nom
Identifiant
Mot de passe
Répétez le mot de passe
Adresse e-mail
Répétez l'adresse e-mail

Nous contacter

 Téléphone : +33 (0)4 79 54 41 81

Coordonnées détaillées et accès : cliquez ici

 
LFLB °C
    Ferienhaus Ostsee
[source: ADDS]
METAR
LFLB 242330Z AUTO 15002KT 0800 0550 R18/0550D R36/0650D FZFG NSC M02/M02 Q1023 =
TAF LFLB 241400Z 2415/2515 VRB03KT CAVOK PROB30 TEMPO 2500/2508 3000 BR
TAF
TAF LFLB 241400Z 2415/2515 VRB03KT CAVOK PROB30 TEMPO 2500/2508 3000 BR =
SR / SS: 06:49 / 15:57 UTC (Lever/Coucher du soleil le 2020-11-25)
JSN Boot template designed by JoomlaShine.com